Sim-Planet VA

Sim-Planet Nouvel Horizon. By: Anthony Pay
Since 2020.




 METAR ET TAF INFORMATION
METAR FOR LUKK
ADDS - METARS form results

(1907 UTC 28 January 2022)
Data provider http://aviationweather.gov/metar/data/
 
METAR text: LUKK 281900Z 30014KT CAVOK 04/M02 Q1011 NOSIG
Conditions at: LUKK (CHISINAU INTL , MD) observed 1900 UTC 28 January 2022
Temperature: 4.0°C (39°F)
Dewpoint: -2.0°C (28°F) [RH = 65%]
Pressure (altimeter): 29.85 inches Hg (1011.0 mb)
Winds: from the WNW (300 degrees) at 16 MPH (14 knots; 7.2 m/s)
Visibility: 6 or more miles (10+ km)
Ceiling: ceiling and visibility are OK
Clouds: unknown
Weather: no significant weather observed at this time

METAR text: LUKK 281830Z 28010KT CAVOK 02/M01 Q1011 NOSIG
Conditions at: LUKK (CHISINAU INTL , MD) observed 1830 UTC 28 January 2022
Temperature: 2.0°C (36°F)
Dewpoint: -1.0°C (30°F) [RH = 80%]
Pressure (altimeter): 29.85 inches Hg (1011.0 mb)
Winds: from the W (280 degrees) at 12 MPH (10 knots; 5.1 m/s)
Visibility: 6 or more miles (10+ km)
Ceiling: ceiling and visibility are OK
Clouds: unknown
Weather: no significant weather observed at this time

Forecast for: LUKK (CHISINAU INTL , MD)
Text: TAF LUKK 281720Z 2818/2918 24008KT 9999 BKN030
Forecast period: 1800 to 1900 UTC 28 January 2022
Forecast type: FROM: standard forecast or significant change
Winds: from the WSW (240 degrees) at 9 MPH (8 knots; 4.1 m/s)
Visibility: 6 or more miles (10+ km)
Ceiling: 3000 feet AGL
Clouds: broken clouds at 3000 feet AGL
Weather: no significant weather forecast for this period
Text: BECMG 2819/2821 30014KT
Forecast period: 1900 UTC 28 January 2022 to 1800 UTC 29 January 2022
Forecast type: BECOMING: Conditions expected to become as follows by 2100 UTC 28 January 2022
Winds: from the WNW (300 degrees) at 16 MPH (14 knots; 7.2 m/s)
Visibility: 6 or more miles (10+ km)
Ceiling: 3000 feet AGL
Clouds: broken clouds at 3000 feet AGL
Weather: no significant weather forecast for this period
Text: TEMPO 2821/2912 31016G26KT 5000 SN BKN015
Forecast period: 2100 UTC 28 January 2022 to 1200 UTC 29 January 2022
Forecast type: TEMPORARY: The following changes expected for less than half the time period
Winds: from the NW (310 degrees) at 18 MPH (16 knots; 8.2 m/s)
gusting to 30 MPH (26 knots; 13.4 m/s)
Visibility: 3 miles (5 km)
Ceiling: 1500 feet AGL
Clouds: broken clouds at 1500 feet AGL
Weather: SN  (moderate snow)

 AÉROPORT DE AÉROPORT

 INFORMATIONS DE PISTE
Piste 08 Longueur de la piste 11779 ft Largeur de la piste 145 ft
Élévation de la piste 399 ft Seuil de la piste déplacés 0 ft Runway heading 88
Piste 26 Longueur de la piste 11779 ft Largeur de la piste 145 ft
Élévation de la piste 279 ft Seuil de la piste déplacés 0 ft Runway heading 268

 AÉROPORT FRÉQUENCES
Type APP Nom APP Féquence 125.9 MHZ
Type ATIS Nom ATIS Féquence 133.7 MHZ
Type GND Nom GND Féquence 121.8 MHZ
Type TWR Nom TWR Féquence 118.1 MHZ

 SIDA DE NAVIGATION
Type VOR-DME Nom Chisinau Féquence 113700 KHZ

Nos Partenaires